Time;durP1;ratioP1;P1;durP2;ratioP2;P2;SDS_P1;SDS_P2;PMS_P1;PMS_P2;Temp;Humidity;BMP_temperature;BMP_pressure;BME280_temperature;BME280_humidity;BME280_pressure;Samples;Min_cycle;Max_cycle;Signal;HPM_P1;HPM_P2
2021/08/05 00:00:26;;;;;;;5.80;3.27;;;16.70;99.90;;;;;;5031486;28;20467;-68
2021/08/05 00:02:53;;;;;;;4.53;3.30;;;16.60;99.90;;;;;;5032271;28;20453;-70
2021/08/05 00:05:20;;;;;;;5.00;3.23;;;16.60;99.90;;;;;;5032046;28;20455;-69
2021/08/05 00:07:47;;;;;;;5.60;3.80;;;16.60;99.90;;;;;;5032525;28;20511;-68
2021/08/05 00:10:14;;;;;;;4.53;3.37;;;16.50;99.90;;;;;;5031529;28;20675;-68
2021/08/05 00:12:42;;;;;;;4.33;3.40;;;16.50;99.90;;;;;;5032273;28;20455;-67
2021/08/05 00:15:10;;;;;;;4.63;3.63;;;16.50;99.90;;;;;;5031811;28;20449;-68
2021/08/05 00:17:36;;;;;;;3.60;2.80;;;16.60;99.90;;;;;;5032129;28;20441;-67
2021/08/05 00:20:05;;;;;;;4.73;3.30;;;16.60;99.90;;;;;;5030934;28;21326;-69
2021/08/05 00:22:32;;;;;;;4.13;3.23;;;16.50;99.90;;;;;;5031651;28;20445;-68
2021/08/05 00:24:59;;;;;;;5.90;3.07;;;16.50;99.90;;;;;;5031704;28;20463;-67
2021/08/05 00:27:26;;;;;;;6.30;3.63;;;16.50;99.90;;;;;;5032332;28;20457;-68
2021/08/05 00:29:54;;;;;;;4.47;3.47;;;16.40;99.90;;;;;;5030939;28;20636;-67
2021/08/05 00:32:21;;;;;;;4.63;3.30;;;16.40;99.90;;;;;;5031852;28;20488;-67
2021/08/05 00:34:48;;;;;;;4.00;3.03;;;16.50;99.90;;;;;;5031158;28;21130;-67
2021/08/05 00:37:15;;;;;;;7.67;3.50;;;16.50;99.90;;;;;;5031806;28;20543;-67
2021/08/05 00:39:42;;;;;;;4.07;3.37;;;16.50;99.90;;;;;;5030591;28;20464;-67
2021/08/05 00:42:09;;;;;;;6.37;3.50;;;16.50;99.90;;;;;;5029340;28;20845;-68
2021/08/05 00:44:36;;;;;;;5.27;3.60;;;16.50;99.90;;;;;;5030943;28;20535;-67
2021/08/05 00:47:05;;;;;;;4.60;3.30;;;16.50;99.90;;;;;;5031027;28;20449;-67
2021/08/05 00:49:32;;;;;;;4.53;3.27;;;16.40;99.90;;;;;;5030353;28;20477;-67
2021/08/05 00:51:59;;;;;;;4.00;3.20;;;16.50;99.90;;;;;;5031320;28;20453;-68
2021/08/05 00:54:26;;;;;;;4.10;3.30;;;16.50;99.90;;;;;;5031192;28;20826;-67
2021/08/05 00:56:53;;;;;;;4.03;3.47;;;16.60;99.90;;;;;;5031115;28;20440;-68
2021/08/05 00:59:19;;;;;;;4.70;3.43;;;16.60;99.90;;;;;;5029931;28;20465;-67
2021/08/05 01:01:57;;;;;;;4.60;2.93;;;16.60;99.90;;;;;;5031068;28;20449;-67
2021/08/05 01:04:26;;;;;;;5.93;3.47;;;16.60;99.90;;;;;;5030851;28;20551;-67
2021/08/05 01:07:00;;;;;;;5.00;3.80;;;16.50;99.90;;;;;;5030964;28;20502;-67
2021/08/05 01:09:34;;;;;;;4.77;3.57;;;16.40;99.90;;;;;;5029756;28;20471;-70
2021/08/05 01:12:07;;;;;;;4.90;3.40;;;16.50;99.90;;;;;;5030606;28;20475;-67
2021/08/05 01:14:38;;;;;;;5.13;3.43;;;16.50;99.90;;;;;;5030743;28;21020;-67
2021/08/05 01:17:09;;;;;;;6.70;4.13;;;16.50;99.90;;;;;;5030829;28;20473;-68
2021/08/05 01:19:42;;;;;;;5.63;3.27;;;16.50;99.90;;;;;;5029663;28;20523;-67
2021/08/05 01:22:17;;;;;;;4.90;3.63;;;16.40;99.90;;;;;;5030444;28;20459;-68
2021/08/05 01:24:54;;;;;;;4.20;3.30;;;16.40;99.90;;;;;;5030343;28;20931;-67
2021/08/05 01:27:23;;;;;;;5.77;3.67;;;16.40;99.90;;;;;;5030684;28;20543;-68
2021/08/05 01:29:51;;;;;;;4.10;3.43;;;16.30;99.90;;;;;;5030048;28;20851;-68
2021/08/05 01:32:20;;;;;;;4.50;3.03;;;16.30;99.90;;;;;;5030536;28;20459;-68
2021/08/05 01:34:48;;;;;;;4.60;3.40;;;16.30;99.90;;;;;;5030128;28;20441;-67
2021/08/05 01:37:17;;;;;;;5.63;3.30;;;16.20;99.90;;;;;;5030592;28;20455;-68
2021/08/05 01:39:49;;;;;;;3.73;3.00;;;16.10;99.90;;;;;;5029532;28;20602;-68
2021/08/05 01:42:24;;;;;;;4.03;3.00;;;16.10;99.90;;;;;;5030381;28;20453;-68
2021/08/05 01:44:53;;;;;;;7.53;3.47;;;16.00;99.90;;;;;;5029822;28;20814;-69
2021/08/05 01:47:21;;;;;;;4.30;2.83;;;16.00;99.90;;;;;;5030067;28;20838;-70
2021/08/05 01:49:49;;;;;;;5.33;3.57;;;16.00;99.90;;;;;;5029221;28;20507;-68
2021/08/05 01:52:18;;;;;;;4.43;3.40;;;15.90;99.90;;;;;;5030187;28;20451;-68
2021/08/05 01:54:46;;;;;;;4.40;3.43;;;15.90;99.90;;;;;;5029275;28;20535;-69
2021/08/05 01:57:13;;;;;;;4.37;3.37;;;15.90;99.90;;;;;;5030075;28;20449;-68
2021/08/05 01:59:42;;;;;;;4.30;3.30;;;16.00;99.90;;;;;;5029073;28;20540;-69
2021/08/05 02:02:09;;;;;;;5.10;3.33;;;16.00;99.90;;;;;;5029812;28;20540;-69
2021/08/05 02:04:55;;;;;;;4.67;3.27;;;16.00;99.90;;;;;;5029590;28;20471;-70
2021/08/05 02:07:26;;;;;;;6.53;3.20;;;16.10;99.90;;;;;;5029989;28;20531;-70
2021/08/05 02:10:00;;;;;;;4.73;3.50;;;16.10;99.90;;;;;;5028804;28;20488;-68
2021/08/05 02:12:34;;;;;;;6.30;3.67;;;16.10;99.90;;;;;;5029745;28;20453;-69
2021/08/05 02:15:06;;;;;;;3.70;3.30;;;16.20;99.90;;;;;;5029635;28;20535;-70
2021/08/05 02:17:36;;;;;;;6.10;3.50;;;16.30;99.90;;;;;;5030069;28;20455;-69
2021/08/05 02:20:05;;;;;;;6.33;3.20;;;16.20;99.90;;;;;;5028931;28;20469;-69
2021/08/05 02:22:33;;;;;;;4.13;3.23;;;16.20;99.90;;;;;;5029756;28;20449;-66
2021/08/05 02:25:01;;;;;;;4.03;3.03;;;16.20;99.90;;;;;;5029129;28;20494;-68
2021/08/05 02:27:28;;;;;;;4.30;3.20;;;16.10;99.90;;;;;;5030164;28;20441;-68
2021/08/05 02:29:56;;;;;;;5.40;3.83;;;16.10;99.90;;;;;;5029287;28;20503;-68
2021/08/05 02:32:25;;;;;;;5.47;4.17;;;16.10;99.90;;;;;;5030072;28;20524;-68
2021/08/05 02:34:53;;;;;;;3.70;2.90;;;15.90;99.90;;;;;;5029450;28;20510;-69
2021/08/05 02:37:19;;;;;;;4.80;3.73;;;15.90;99.90;;;;;;5029663;28;21183;-70
2021/08/05 02:39:46;;;;;;;4.47;3.80;;;15.80;99.90;;;;;;5029281;28;20476;-67
2021/08/05 02:42:15;;;;;;;5.07;3.87;;;15.70;99.90;;;;;;5030115;28;20441;-69
2021/08/05 02:44:42;;;;;;;4.70;3.30;;;15.60;99.90;;;;;;5030984;28;20441;-70
2021/08/05 02:47:09;;;;;;;4.23;3.50;;;15.50;99.90;;;;;;5030018;28;20552;-69
2021/08/05 02:49:38;;;;;;;4.80;3.73;;;15.40;99.90;;;;;;5028632;28;20478;-71
2021/08/05 02:52:06;;;;;;;5.53;3.83;;;15.40;99.90;;;;;;5029548;28;20485;-69
2021/08/05 02:54:33;;;;;;;5.03;3.83;;;15.30;99.90;;;;;;5029213;28;20455;-67
2021/08/05 02:57:00;;;;;;;5.60;4.37;;;15.10;99.90;;;;;;5029591;28;20441;-69
2021/08/05 02:59:27;;;;;;;5.17;3.83;;;15.00;99.90;;;;;;5028475;28;20841;-70
2021/08/05 03:01:54;;;;;;;4.70;3.83;;;15.00;99.90;;;;;;5029418;28;21188;-67
2021/08/05 03:04:21;;;;;;;5.87;4.30;;;14.90;99.90;;;;;;5029084;28;20449;-69
2021/08/05 03:06:49;;;;;;;4.37;3.47;;;14.90;99.90;;;;;;5031621;28;20445;-69
2021/08/05 03:09:17;;;;;;;7.77;4.47;;;14.80;99.90;;;;;;5032317;28;20603;-69
2021/08/05 03:11:43;;;;;;;5.10;4.43;;;14.70;99.90;;;;;;5032989;28;20484;-68
2021/08/05 03:14:12;;;;;;;6.53;4.73;;;14.70;99.90;;;;;;5033052;28;20440;-71
2021/08/05 03:16:39;;;;;;;5.63;4.60;;;14.60;99.90;;;;;;5032980;28;20553;-68
2021/08/05 03:19:06;;;;;;;5.00;4.40;;;14.60;99.90;;;;;;5031982;28;20467;-68
2021/08/05 03:21:32;;;;;;;5.83;4.30;;;14.50;99.90;;;;;;5032697;28;20452;-69
2021/08/05 03:24:01;;;;;;;8.87;4.80;;;14.40;99.90;;;;;;5033022;28;20449;-68
2021/08/05 03:26:28;;;;;;;6.63;4.43;;;14.50;99.90;;;;;;5032432;28;20555;-69
2021/08/05 03:28:55;;;;;;;6.53;5.00;;;14.40;99.90;;;;;;5032523;28;20547;-68
2021/08/05 03:31:22;;;;;;;5.40;4.67;;;14.40;99.90;;;;;;5032282;28;20483;-70
2021/08/05 03:33:49;;;;;;;5.30;4.33;;;14.40;99.90;;;;;;5032633;28;20494;-69
2021/08/05 03:36:16;;;;;;;6.37;4.70;;;14.40;99.90;;;;;;5032257;28;20440;-68
2021/08/05 03:38:42;;;;;;;6.13;5.53;;;14.30;99.90;;;;;;5032417;28;21049;-69
2021/08/05 03:41:11;;;;;;;8.70;6.00;;;14.30;99.90;;;;;;5031711;28;20523;-69
2021/08/05 03:43:37;;;;;;;6.63;5.93;;;14.20;99.90;;;;;;5032503;28;20544;-71
2021/08/05 03:46:05;;;;;;;8.13;6.37;;;14.30;99.90;;;;;;5031926;28;20453;-69
2021/08/05 03:48:32;;;;;;;8.93;6.50;;;14.20;99.90;;;;;;5032520;28;20859;-70
2021/08/05 03:50:59;;;;;;;7.40;5.93;;;14.20;99.90;;;;;;5031432;28;20531;-68
2021/08/05 03:53:25;;;;;;;8.90;6.57;;;14.10;99.90;;;;;;5032673;28;20533;-69
2021/08/05 03:55:52;;;;;;;7.70;6.10;;;14.00;99.90;;;;;;5032162;28;20476;-68
2021/08/05 03:58:21;;;;;;;6.70;5.83;;;14.00;99.90;;;;;;5032239;28;20950;-68
2021/08/05 04:00:47;;;;;;;7.70;6.03;;;14.00;99.90;;;;;;5031345;28;20449;-68
2021/08/05 04:03:14;;;;;;;7.10;5.67;;;13.90;99.90;;;;;;5032301;28;20457;-69
2021/08/05 04:05:41;;;;;;;9.43;6.07;;;14.00;99.90;;;;;;5031606;28;20457;-68
2021/08/05 04:08:08;;;;;;;7.17;5.90;;;13.90;99.90;;;;;;5032070;28;20445;-69
2021/08/05 04:10:35;;;;;;;8.30;6.23;;;13.90;99.90;;;;;;5030975;28;21005;-68
2021/08/05 04:13:02;;;;;;;7.40;5.40;;;13.90;99.90;;;;;;5032094;28;20468;-69
2021/08/05 04:15:30;;;;;;;7.43;6.50;;;13.90;99.90;;;;;;5031559;28;21046;-69
2021/08/05 04:17:57;;;;;;;8.57;7.27;;;13.90;99.90;;;;;;5031372;28;20451;-68
2021/08/05 04:20:24;;;;;;;7.93;6.20;;;13.90;99.90;;;;;;5031152;28;20476;-69
2021/08/05 04:22:51;;;;;;;8.20;6.50;;;13.80;99.90;;;;;;5031757;28;20440;-70
2021/08/05 04:25:18;;;;;;;7.60;6.80;;;13.90;99.90;;;;;;5031193;28;20457;-69
2021/08/05 04:27:45;;;;;;;9.43;8.00;;;13.90;99.90;;;;;;5031686;28;20451;-68
2021/08/05 04:30:15;;;;;;;10.10;7.83;;;14.00;99.90;;;;;;5030940;28;20465;-68
2021/08/05 04:32:44;;;;;;;10.20;8.13;;;14.00;99.90;;;;;;5031715;28;20444;-68
2021/08/05 04:35:12;;;;;;;10.73;8.70;;;14.20;99.90;;;;;;5031255;28;20447;-70
2021/08/05 04:37:48;;;;;;;10.10;8.60;;;14.30;99.90;;;;;;5031560;28;20444;-69
2021/08/05 04:40:16;;;;;;;10.23;9.17;;;14.50;99.90;;;;;;5030635;28;20471;-69
2021/08/05 04:42:43;;;;;;;13.30;8.40;;;14.70;99.90;;;;;;5032039;28;20480;-68
2021/08/05 04:45:11;;;;;;;8.70;7.50;;;14.80;99.90;;;;;;5031672;28;20502;-68
2021/08/05 04:47:52;;;;;;;8.83;7.77;;;14.90;99.90;;;;;;5031156;28;20489;-69
2021/08/05 04:50:19;;;;;;;8.60;6.90;;;15.10;99.90;;;;;;5030627;28;20471;-68
2021/08/05 04:52:46;;;;;;;8.40;6.63;;;15.10;99.90;;;;;;5031406;28;20425;-69
2021/08/05 04:55:13;;;;;;;8.73;7.67;;;15.20;99.90;;;;;;5031277;28;20515;-68
2021/08/05 04:57:47;;;;;;;8.70;6.40;;;15.30;99.90;;;;;;5031473;28;20523;-68
2021/08/05 05:00:18;;;;;;;9.80;6.67;;;15.50;99.90;;;;;;5030261;28;20465;-69
2021/08/05 05:02:45;;;;;;;7.80;6.67;;;15.60;99.90;;;;;;5031272;28;20528;-68
2021/08/05 05:05:13;;;;;;;8.07;6.10;;;15.60;99.90;;;;;;5030582;28;20514;-69
2021/08/05 05:07:40;;;;;;;8.20;6.37;;;15.70;99.90;;;;;;5031076;28;20445;-69
2021/08/05 05:10:07;;;;;;;8.40;5.70;;;15.80;99.90;;;;;;5030363;28;20936;-69
2021/08/05 05:12:35;;;;;;;7.47;5.67;;;15.90;99.90;;;;;;5030838;28;20514;-68
2021/08/05 05:15:02;;;;;;;7.40;6.40;;;15.90;99.90;;;;;;5030541;28;20453;-68
2021/08/05 05:17:29;;;;;;;7.53;5.90;;;16.00;99.90;;;;;;5030793;28;20520;-69
2021/08/05 05:19:55;;;;;;;8.20;6.93;;;16.10;99.90;;;;;;5029809;28;20555;-69
2021/08/05 05:22:24;;;;;;;9.97;6.43;;;16.30;99.90;;;;;;5030764;28;20441;-69
2021/08/05 05:24:51;;;;;;;6.37;5.73;;;16.30;99.90;;;;;;5030263;28;20491;-68
2021/08/05 05:27:17;;;;;;;8.07;5.57;;;16.40;99.90;;;;;;5030918;28;20566;-68
2021/08/05 05:29:48;;;;;;;8.40;5.83;;;16.40;99.90;;;;;;5029707;28;20535;-70
2021/08/05 05:32:15;;;;;;;7.53;5.97;;;16.40;99.90;;;;;;5031539;28;20492;-67
2021/08/05 05:34:42;;;;;;;7.77;4.90;;;16.40;99.90;;;;;;5030979;28;20448;-67
2021/08/05 05:37:09;;;;;;;8.10;5.80;;;16.30;99.90;;;;;;5031350;28;20456;-69
2021/08/05 05:39:37;;;;;;;6.90;5.80;;;16.20;99.90;;;;;;5031352;28;20559;-68
2021/08/05 05:42:04;;;;;;;8.20;5.87;;;16.20;99.90;;;;;;5030547;28;20992;-69
2021/08/05 05:44:31;;;;;;;10.83;6.13;;;16.10;99.90;;;;;;5030049;28;20484;-68
2021/08/05 05:46:58;;;;;;;6.93;5.37;;;16.10;99.90;;;;;;5030414;28;20980;-69
2021/08/05 05:49:25;;;;;;;8.20;6.30;;;16.00;99.90;;;;;;5029550;28;20477;-69
2021/08/05 05:51:52;;;;;;;7.17;5.70;;;15.90;99.90;;;;;;5030148;28;20485;-69
2021/08/05 05:54:19;;;;;;;6.93;6.10;;;16.00;99.90;;;;;;5029881;28;20535;-68
2021/08/05 05:56:47;;;;;;;6.20;5.40;;;15.90;99.90;;;;;;5030273;28;20815;-67
2021/08/05 05:59:14;;;;;;;9.33;5.37;;;16.00;99.90;;;;;;5029137;28;20971;-69
2021/08/05 06:01:41;;;;;;;9.70;5.93;;;16.20;99.90;;;;;;5029810;28;20492;-70
2021/08/05 06:04:07;;;;;;;6.60;5.70;;;16.30;99.90;;;;;;5029752;28;20543;-70
2021/08/05 06:06:34;;;;;;;8.30;5.20;;;16.40;99.90;;;;;;5029737;28;20541;-69
2021/08/05 06:09:02;;;;;;;8.77;7.13;;;16.50;99.90;;;;;;5029422;28;20562;-68
2021/08/05 06:11:29;;;;;;;7.57;6.00;;;16.50;99.90;;;;;;5029841;28;20488;-68
2021/08/05 06:13:58;;;;;;;7.30;6.23;;;16.60;99.90;;;;;;5029991;28;20544;-69
2021/08/05 06:16:25;;;;;;;6.67;5.73;;;16.70;99.90;;;;;;5029644;28;20874;-69
2021/08/05 06:18:52;;;;;;;8.43;5.90;;;16.80;99.90;;;;;;5029592;28;20997;-70
2021/08/05 06:21:19;;;;;;;8.20;6.30;;;16.80;99.90;;;;;;5029418;28;20532;-69
2021/08/05 06:23:46;;;;;;;7.13;5.80;;;16.90;99.90;;;;;;5029681;28;20445;-70
2021/08/05 06:26:13;;;;;;;6.00;5.40;;;16.90;99.90;;;;;;5029339;28;20850;-70
2021/08/05 06:28:40;;;;;;;6.63;5.90;;;17.00;99.90;;;;;;5029576;28;20468;-70
2021/08/05 06:31:10;;;;;;;7.17;5.53;;;17.00;99.90;;;;;;5029068;28;20452;-68
2021/08/05 06:33:37;;;;;;;10.20;5.43;;;17.10;99.90;;;;;;5029785;28;20479;-68
2021/08/05 06:36:05;;;;;;;7.00;5.63;;;17.20;99.90;;;;;;5029175;28;21006;-68
2021/08/05 06:38:31;;;;;;;7.70;4.73;;;17.20;99.90;;;;;;5029594;28;20840;-69
2021/08/05 06:40:58;;;;;;;5.63;5.00;;;17.30;99.90;;;;;;5029806;28;20459;-68
2021/08/05 06:43:25;;;;;;;7.90;5.50;;;17.40;99.90;;;;;;5033670;28;20445;-70
2021/08/05 06:45:52;;;;;;;6.87;5.40;;;17.50;99.90;;;;;;5033505;28;20543;-69
2021/08/05 06:48:20;;;;;;;7.50;5.20;;;17.50;99.90;;;;;;5033600;28;20451;-70
2021/08/05 06:50:47;;;;;;;6.83;4.97;;;17.60;99.90;;;;;;5032860;28;20452;-69
2021/08/05 06:53:14;;;;;;;7.23;4.40;;;17.70;99.90;;;;;;5033693;28;20477;-70
2021/08/05 06:55:41;;;;;;;5.77;4.80;;;17.80;99.90;;;;;;5033366;28;20544;-70
2021/08/05 06:58:08;;;;;;;6.83;4.47;;;18.00;99.90;;;;;;5033543;28;20817;-69
2021/08/05 07:00:35;;;;;;;6.00;4.60;;;18.20;99.90;;;;;;5032489;28;20511;-69
2021/08/05 07:03:02;;;;;;;6.60;4.40;;;18.50;99.90;;;;;;5033307;28;20479;-71
2021/08/05 07:05:30;;;;;;;6.80;4.33;;;19.00;99.90;;;;;;5032792;28;21008;-68
2021/08/05 07:07:57;;;;;;;6.77;3.70;;;19.40;99.90;;;;;;5033320;28;20451;-69
2021/08/05 07:10:25;;;;;;;5.43;4.10;;;19.80;99.90;;;;;;5032299;28;20496;-69
2021/08/05 07:12:51;;;;;;;4.87;4.23;;;20.40;99.90;;;;;;5032998;28;20476;-69
2021/08/05 07:15:18;;;;;;;6.83;3.90;;;20.80;99.90;;;;;;5032826;28;20446;-70
2021/08/05 07:17:45;;;;;;;5.33;3.80;;;21.10;99.90;;;;;;5033077;28;20551;-69
2021/08/05 07:20:13;;;;;;;4.60;3.07;;;21.30;99.90;;;;;;5031950;28;20476;-69
2021/08/05 07:22:42;;;;;;;5.33;3.60;;;21.40;99.90;;;;;;5033100;28;20452;-68
2021/08/05 07:25:11;;;;;;;6.00;4.37;;;21.30;99.90;;;;;;5032542;28;20511;-69
2021/08/05 07:27:39;;;;;;;4.60;3.07;;;21.30;99.90;;;;;;5032919;28;20463;-69
2021/08/05 07:30:11;;;;;;;6.30;3.57;;;21.20;99.90;;;;;;5031970;28;20974;-69
2021/08/05 07:32:38;;;;;;;5.00;3.10;;;21.30;99.90;;;;;;5032915;28;20502;-69
2021/08/05 07:35:06;;;;;;;6.87;3.40;;;21.20;99.90;;;;;;5032871;28;20459;-69
2021/08/05 07:37:33;;;;;;;4.53;3.30;;;21.40;99.90;;;;;;5033234;28;20545;-69
2021/08/05 07:40:01;;;;;;;6.77;3.70;;;21.80;99.90;;;;;;5032834;28;20476;-69
2021/08/05 07:42:28;;;;;;;4.97;3.37;;;21.90;99.90;;;;;;5033408;28;20476;-69
2021/08/05 07:44:55;;;;;;;4.83;2.70;;;22.00;99.90;;;;;;5032318;28;20441;-70
2021/08/05 07:47:24;;;;;;;5.03;3.40;;;22.00;99.90;;;;;;5032398;28;20455;-69
2021/08/05 07:49:51;;;;;;;5.17;3.50;;;21.60;99.90;;;;;;5031738;28;20602;-69
2021/08/05 07:52:18;;;;;;;4.27;3.20;;;21.50;99.90;;;;;;5031693;28;20928;-70
2021/08/05 07:54:45;;;;;;;5.27;3.10;;;21.50;99.90;;;;;;5031884;28;20974;-69
2021/08/05 07:57:13;;;;;;;4.30;3.40;;;21.60;99.90;;;;;;5032287;28;20459;-69
2021/08/05 07:59:42;;;;;;;3.63;3.00;;;21.70;99.90;;;;;;5031490;28;21122;-69
2021/08/05 08:02:09;;;;;;;5.40;3.63;;;21.90;99.90;;;;;;5031804;28;20441;-69
2021/08/05 08:04:35;;;;;;;4.30;3.20;;;22.10;99.90;;;;;;5031810;28;20293;-68
2021/08/05 08:07:04;;;;;;;5.23;3.10;;;22.30;99.90;;;;;;5032113;28;20471;-69
2021/08/05 08:09:32;;;;;;;5.63;3.83;;;22.60;99.90;;;;;;5031211;28;20469;-68
2021/08/05 08:11:58;;;;;;;6.23;3.43;;;22.90;99.90;;;;;;5031843;28;20587;-69
2021/08/05 08:14:27;;;;;;;3.80;2.63;;;23.10;99.90;;;;;;5031493;28;20441;-69
2021/08/05 08:16:54;;;;;;;3.30;2.90;;;23.40;99.90;;;;;;5031689;28;21014;-70
2021/08/05 08:19:20;;;;;;;4.77;3.07;;;23.70;99.90;;;;;;5031148;28;20588;-67
2021/08/05 08:21:47;;;;;;;6.93;3.00;;;23.90;99.90;;;;;;5031750;28;20531;-69
2021/08/05 08:24:14;;;;;;;5.00;3.33;;;23.70;99.90;;;;;;5031615;28;20544;-69
2021/08/05 08:26:41;;;;;;;3.30;2.60;;;23.50;99.90;;;;;;5031516;28;20544;-68
2021/08/05 08:29:08;;;;;;;4.30;3.07;;;23.20;99.90;;;;;;5030759;28;20483;-68
2021/08/05 08:31:36;;;;;;;6.20;3.33;;;23.00;99.90;;;;;;5031963;28;20456;-69
2021/08/05 08:34:03;;;;;;;5.23;3.23;;;23.00;99.90;;;;;;5031892;28;20473;-69
2021/08/05 08:36:30;;;;;;;5.63;3.03;;;23.00;99.90;;;;;;5031545;28;20449;-69
2021/08/05 08:38:58;;;;;;;4.60;2.90;;;23.30;99.90;;;;;;5030830;28;20460;-71
2021/08/05 08:41:26;;;;;;;6.03;2.83;;;23.80;99.90;;;;;;5031330;28;20951;-68
2021/08/05 08:43:52;;;;;;;4.20;2.80;;;24.10;99.90;;;;;;5031347;28;20485;-69
2021/08/05 08:46:21;;;;;;;4.50;2.67;;;24.50;99.90;;;;;;5031185;28;20520;-68
2021/08/05 08:48:52;;;;;;;4.90;2.77;;;24.90;99.90;;;;;;5031547;28;20849;-68
2021/08/05 08:51:20;;;;;;;5.50;3.27;;;25.30;99.90;;;;;;5030778;28;20445;-69
2021/08/05 08:53:51;;;;;;;3.60;2.93;;;25.60;99.90;;;;;;5031266;28;20866;-68
2021/08/05 08:56:21;;;;;;;4.33;3.07;;;25.80;99.90;;;;;;5031154;28;20445;-67
2021/08/05 08:58:48;;;;;;;3.83;3.00;;;25.90;99.90;;;;;;5031235;28;20994;-69
2021/08/05 09:01:16;;;;;;;4.10;3.27;;;25.80;99.90;;;;;;5030570;28;20471;-69
2021/08/05 09:03:43;;;;;;;5.60;3.40;;;25.60;99.90;;;;;;5031140;28;20452;-69
2021/08/05 09:06:12;;;;;;;3.77;2.90;;;25.50;99.90;;;;;;5030682;28;20901;-69
2021/08/05 09:08:39;;;;;;;4.00;3.13;;;25.10;99.90;;;;;;5030745;28;20543;-69
2021/08/05 09:11:06;;;;;;;4.47;3.17;;;24.80;99.90;;;;;;5030221;28;20459;-70
2021/08/05 09:13:33;;;;;;;4.00;2.80;;;24.50;99.90;;;;;;5030749;28;20476;-68
2021/08/05 09:16:00;;;;;;;3.97;2.67;;;24.30;99.90;;;;;;5030457;28;20540;-69
2021/08/05 09:18:30;;;;;;;4.23;3.03;;;24.50;99.90;;;;;;5030651;28;20449;-69
2021/08/05 09:21:14;;;;;;;5.00;2.70;;;24.70;99.90;;;;;;5029664;28;20452;-69
2021/08/05 09:23:52;;;;;;;5.53;3.60;;;24.90;99.90;;;;;;5030680;28;20451;-70
2021/08/05 09:26:27;;;;;;;5.43;3.40;;;24.90;99.90;;;;;;5030070;28;20548;-70
2021/08/05 09:29:08;;;;;;;4.43;3.20;;;25.10;99.90;;;;;;5030379;28;20556;-69
2021/08/05 09:31:37;;;;;;;4.20;3.00;;;25.10;99.90;;;;;;5030442;28;20551;-70
2021/08/05 09:34:06;;;;;;;4.70;3.43;;;25.10;99.90;;;;;;5030578;28;20849;-69
2021/08/05 09:36:35;;;;;;;7.73;3.40;;;25.20;99.90;;;;;;5030193;28;20449;-69
2021/08/05 09:39:07;;;;;;;4.20;3.00;;;25.10;99.90;;;;;;5029717;28;20467;-70
2021/08/05 09:41:34;;;;;;;3.47;2.90;;;24.60;99.90;;;;;;5030034;28;20458;-69
2021/08/05 09:44:03;;;;;;;5.93;3.70;;;24.60;99.90;;;;;;5030096;28;20527;-69
2021/08/05 09:46:31;;;;;;;4.73;3.13;;;24.90;99.90;;;;;;5029668;28;20536;-69
2021/08/05 09:48:58;;;;;;;5.90;3.23;;;24.40;99.90;;;;;;5029358;28;21033;-69
2021/08/05 09:51:25;;;;;;;4.70;3.03;;;24.00;99.90;;;;;;5030031;28;20532;-69
2021/08/05 09:54:02;;;;;;;4.00;3.30;;;23.70;99.90;;;;;;5029942;28;21220;-70
2021/08/05 09:56:30;;;;;;;5.63;3.50;;;24.50;99.90;;;;;;5029662;28;20914;-70
2021/08/05 09:59:12;;;;;;;4.80;3.40;;;25.30;99.90;;;;;;5029481;28;20471;-71
2021/08/05 10:01:58;;;;;;;5.03;3.20;;;25.50;99.90;;;;;;5029988;28;20528;-70
2021/08/05 10:04:27;;;;;;;4.60;2.90;;;25.80;99.90;;;;;;5029572;28;20906;-71
2021/08/05 10:07:01;;;;;;;5.53;2.80;;;25.80;99.90;;;;;;5029900;28;20468;-70
2021/08/05 10:09:30;;;;;;;5.53;2.70;;;26.30;99.90;;;;;;5028949;28;20547;-70
2021/08/05 10:12:11;;;;;;;3.93;2.80;;;26.90;99.90;;;;;;5030046;28;20591;-70
2021/08/05 10:14:38;;;;;;;4.70;2.70;;;27.60;99.90;;;;;;5029121;28;20939;-70
2021/08/05 10:17:07;;;;;;;3.40;2.67;;;27.60;99.90;;;;;;5030011;28;20834;-70
2021/08/05 10:19:38;;;;;;;3.50;2.83;;;26.80;98.80;;;;;;5029045;28;20486;-69
2021/08/05 10:22:06;;;;;;;3.40;2.20;;;26.80;98.80;;;;;;5029418;28;21134;-69
2021/08/05 10:24:37;;;;;;;4.00;2.90;;;26.90;98.20;;;;;;5029258;28;20523;-69
2021/08/05 10:27:06;;;;;;;6.80;2.83;;;26.50;99.20;;;;;;5029597;28;20953;-70
2021/08/05 10:29:34;;;;;;;3.90;2.57;;;25.80;99.90;;;;;;5028940;28;20556;-69
2021/08/05 10:32:01;;;;;;;3.00;2.10;;;25.60;99.90;;;;;;5029494;28;20451;-69
2021/08/05 10:34:28;;;;;;;3.50;2.50;;;25.60;99.90;;;;;;5029097;28;20487;-70
2021/08/05 10:36:55;;;;;;;5.50;2.70;;;26.40;99.90;;;;;;5029481;28;20848;-70
2021/08/05 10:39:22;;;;;;;3.40;2.30;;;27.20;99.90;;;;;;5028774;28;20471;-70
2021/08/05 10:41:51;;;;;;;5.30;2.40;;;27.80;98.50;;;;;;5029466;28;20452;-70
2021/08/05 10:44:18;;;;;;;3.00;2.30;;;28.60;99.60;;;;;;5029078;28;20456;-70
2021/08/05 10:46:46;;;;;;;3.93;2.30;;;28.30;97.20;;;;;;5029641;28;20457;-69
2021/08/05 10:49:14;;;;;;;4.30;2.37;;;27.90;97.40;;;;;;5028734;28;20830;-71
2021/08/05 10:51:41;;;;;;;4.57;2.77;;;27.50;98.30;;;;;;5029625;28;20453;-69
2021/08/05 10:54:09;;;;;;;3.60;2.87;;;26.50;98.60;;;;;;5029207;28;20483;-70
2021/08/05 10:56:36;;;;;;;3.73;2.50;;;26.50;98.00;;;;;;5029277;28;20455;-69
2021/08/05 10:59:12;;;;;;;2.90;2.00;;;26.20;99.60;;;;;;5028669;28;20519;-69
2021/08/05 11:01:47;;;;;;;3.30;2.07;;;26.30;98.20;;;;;;5029602;28;21029;-70
2021/08/05 11:04:47;;;;;;;3.87;2.23;;;26.90;99.90;;;;;;5029381;28;20444;-70
2021/08/05 11:07:28;;;;;;;2.90;1.87;;;27.50;98.40;;;;;;4968432;28;20475;-70
2021/08/05 11:10:22;;;;;;;3.10;2.00;;;27.90;98.30;;;;;;4967416;28;20560;-70
2021/08/05 11:12:51;;;;;;;2.80;1.93;;;28.10;95.70;;;;;;5012608;28;20528;-70
2021/08/05 11:15:52;;;;;;;3.90;2.10;;;27.60;97.20;;;;;;5029012;28;20484;-69
2021/08/05 11:18:21;;;;;;;4.07;2.20;;;27.00;97.40;;;;;;5029127;28;20452;-70
2021/08/05 11:21:27;;;;;;;3.73;2.70;;;25.90;98.20;;;;;;5028415;28;20938;-69
2021/08/05 11:23:55;;;;;;;2.80;1.93;;;25.30;99.00;;;;;;5029224;28;20535;-70
2021/08/05 11:26:24;;;;;;;3.60;1.90;;;24.70;99.90;;;;;;5028594;28;21047;-68
2021/08/05 11:28:55;;;;;;;3.77;2.20;;;24.50;99.90;;;;;;5032626;28;20519;-69
2021/08/05 11:31:29;;;;;;;6.50;2.27;;;23.80;99.90;;;;;;5032715;28;20448;-69
2021/08/05 11:33:57;;;;;;;3.90;1.87;;;23.20;99.90;;;;;;5032598;28;20566;-69
2021/08/05 11:36:31;;;;;;;4.70;1.97;;;23.10;99.90;;;;;;5032049;28;20455;-69
2021/08/05 11:39:01;;;;;;;3.67;1.90;;;22.80;99.90;;;;;;5032027;28;20506;-69
2021/08/05 11:41:42;;;;;;;3.50;2.23;;;22.90;99.90;;;;;;5032515;28;20898;-69
2021/08/05 11:44:23;;;;;;;6.10;2.00;;;23.40;99.90;;;;;;5032416;28;20503;-68
2021/08/05 11:47:28;;;;;;;3.17;2.23;;;23.80;99.90;;;;;;5032550;28;20448;-69
2021/08/05 11:50:00;;;;;;;3.13;2.10;;;24.50;99.90;;;;;;5031644;28;20879;-68
2021/08/05 11:52:36;;;;;;;4.53;2.13;;;24.90;99.90;;;;;;5032498;28;20444;-69
2021/08/05 11:55:06;;;;;;;2.50;1.60;;;25.60;99.90;;;;;;5031960;28;20564;-69
2021/08/05 11:57:39;;;;;;;2.50;1.63;;;26.50;99.90;;;;;;5032269;28;20947;-69
2021/08/05 12:00:13;;;;;;;3.57;1.50;;;27.20;98.90;;;;;;5031532;28;20472;-70
2021/08/05 12:02:42;;;;;;;2.60;1.67;;;28.40;96.30;;;;;;5032226;28;20531;-69
2021/08/05 12:05:09;;;;;;;2.80;1.60;;;28.30;96.00;;;;;;5031735;28;20480;-68
2021/08/05 12:07:37;;;;;;;3.10;1.73;;;28.00;95.50;;;;;;5032282;28;20824;-70
2021/08/05 12:10:10;;;;;;;3.03;1.37;;;28.10;94.00;;;;;;5031148;28;20505;-70
2021/08/05 12:12:40;;;;;;;3.50;1.40;;;27.80;95.70;;;;;;5032115;28;20894;-70
2021/08/05 12:15:09;;;;;;;2.73;1.70;;;27.90;94.90;;;;;;5031624;28;20532;-70
2021/08/05 12:17:39;;;;;;;2.57;1.73;;;27.90;95.10;;;;;;5031822;28;20528;-69
2021/08/05 12:20:11;;;;;;;3.23;1.60;;;27.90;94.10;;;;;;5030850;28;20560;-69
2021/08/05 12:22:40;;;;;;;3.40;1.90;;;28.30;95.70;;;;;;5031842;28;20453;-69
2021/08/05 12:25:21;;;;;;;4.97;1.80;;;29.40;93.10;;;;;;5031363;28;20543;-69
2021/08/05 12:27:58;;;;;;;3.33;1.30;;;29.50;92.90;;;;;;5031797;28;20531;-70
2021/08/05 12:30:33;;;;;;;3.10;2.00;;;29.90;93.10;;;;;;5030846;28;20538;-68
2021/08/05 12:33:03;;;;;;;2.60;1.57;;;30.30;94.70;;;;;;5031768;28;20544;-69
2021/08/05 12:35:31;;;;;;;4.53;1.30;;;30.20;90.50;;;;;;5031258;28;20448;-68
2021/08/05 12:38:03;;;;;;;2.90;1.63;;;29.50;91.20;;;;;;5031902;28;20543;-68
2021/08/05 12:40:31;;;;;;;2.80;1.80;;;28.40;92.50;;;;;;5031177;28;20476;-69
2021/08/05 12:42:59;;;;;;;5.67;1.87;;;27.90;94.70;;;;;;5030398;28;20532;-68
2021/08/05 12:45:27;;;;;;;2.70;1.73;;;27.90;94.30;;;;;;5031001;28;20452;-68
2021/08/05 12:47:54;;;;;;;2.63;1.70;;;28.00;95.30;;;;;;5031446;28;20543;-68
2021/08/05 12:50:21;;;;;;;3.20;1.60;;;27.90;94.30;;;;;;5030469;28;20715;-68
2021/08/05 12:52:50;;;;;;;4.33;1.97;;;28.00;95.90;;;;;;5031276;28;20445;-68
2021/08/05 12:55:16;;;;;;;4.30;2.10;;;28.10;96.20;;;;;;5030676;28;20484;-68